EZY14C EGFF-EICK
Flight info
| Callsign | EZY14C |
|---|---|
| Flight time | 0h 44m |
| Altitude | 32000 |
| Route | BCN1A BCN P4 FELCA DCT NICXI DCT OFSOX DCT BANBA DCT VAPAL VAPAL1R |
| Aircraft | A20N/M-SDE2E3FGHIRWXY/LB1 |
Departure
| Time | 2026-05-07 17:46 |
|---|---|
| Airport | Cardiff International Airport (EGFF) |
Arrival
| Time | 2026-05-07 18:30 |
|---|---|
| Airport | Cork International Airport (EICK) |
| Time | Latitude | Longitude | Altitude | Speed | Heading |
|---|---|---|---|---|---|
| 2026-05-07 17:44 | 51.39263 | -3.32801 | 216 ft | 0 kts | 154° |
| 2026-05-07 17:45 | 51.39251 | -3.32797 | 221 ft | 4 kts | 171° |
| 2026-05-07 17:45 | 51.39215 | -3.32814 | 224 ft | 6 kts | 206° |
| 2026-05-07 17:45 | 51.39197 | -3.32865 | 219 ft | 6 kts | 288° |
| 2026-05-07 17:46 | 51.39258 | -3.33047 | 222 ft | 53 kts | 297° |
| 2026-05-07 17:46 | 51.39564 | -3.34032 | 224 ft | 136 kts | 296° |
| 2026-05-07 17:46 | 51.40065 | -3.35606 | 640 ft | 164 kts | 297° |
| 2026-05-07 17:46 | 51.40650 | -3.37255 | 1484 ft | 180 kts | 298° |
| 2026-05-07 17:47 | 51.41264 | -3.39054 | 2318 ft | 189 kts | 294° |
| 2026-05-07 17:47 | 51.41844 | -3.40983 | 3109 ft | 197 kts | 290° |
| 2026-05-07 17:47 | 51.42409 | -3.43079 | 3730 ft | 213 kts | 290° |
| 2026-05-07 17:47 | 51.43054 | -3.45387 | 4286 ft | 237 kts | 294° |
| 2026-05-07 17:48 | 51.44063 | -3.47608 | 4947 ft | 260 kts | 319° |
| 2026-05-07 17:48 | 51.45717 | -3.48960 | 5692 ft | 276 kts | 345° |
| 2026-05-07 17:48 | 51.47623 | -3.49138 | 5901 ft | 279 kts | 10° |
| 2026-05-07 17:48 | 51.49478 | -3.48213 | 6004 ft | 281 kts | 24° |
| 2026-05-07 17:49 | 51.51189 | -3.46737 | 6004 ft | 279 kts | 33° |
| 2026-05-07 17:49 | 51.52828 | -3.45026 | 6005 ft | 281 kts | 34° |
| 2026-05-07 17:49 | 51.54471 | -3.43328 | 5995 ft | 280 kts | 33° |
| 2026-05-07 17:49 | 51.56129 | -3.41688 | 5992 ft | 280 kts | 32° |
| 2026-05-07 17:50 | 51.57805 | -3.40085 | 5997 ft | 280 kts | 31° |
| 2026-05-07 17:50 | 51.59487 | -3.38505 | 6096 ft | 283 kts | 31° |
| 2026-05-07 17:50 | 51.61204 | -3.36905 | 6695 ft | 284 kts | 31° |
| 2026-05-07 17:50 | 51.62905 | -3.35320 | 7686 ft | 286 kts | 30° |
| 2026-05-07 17:51 | 51.64626 | -3.33715 | 8794 ft | 287 kts | 30° |
| 2026-05-07 17:51 | 51.66370 | -3.32087 | 9800 ft | 293 kts | 29° |
| 2026-05-07 17:51 | 51.68168 | -3.30406 | 10515 ft | 307 kts | 30° |
| 2026-05-07 17:51 | 51.70178 | -3.28986 | 10911 ft | 328 kts | 12° |
| 2026-05-07 17:52 | 51.72523 | -3.28849 | 11318 ft | 344 kts | 348° |
| 2026-05-07 17:52 | 51.74745 | -3.30209 | 12127 ft | 344 kts | 326° |
| 2026-05-07 17:52 | 51.76509 | -3.32805 | 12951 ft | 345 kts | 304° |
| 2026-05-07 17:52 | 51.77581 | -3.36205 | 13788 ft | 346 kts | 287° |
| 2026-05-07 17:53 | 51.78353 | -3.39963 | 14581 ft | 349 kts | 287° |
| 2026-05-07 17:53 | 51.79204 | -3.43604 | 15364 ft | 353 kts | 290° |
| 2026-05-07 17:53 | 51.80245 | -3.47232 | 16113 ft | 358 kts | 294° |
| 2026-05-07 17:53 | 51.81412 | -3.50820 | 16847 ft | 363 kts | 295° |
| 2026-05-07 17:54 | 51.82421 | -3.54577 | 17584 ft | 365 kts | 287° |
| 2026-05-07 17:54 | 51.83121 | -3.58532 | 18330 ft | 367 kts | 280° |
| 2026-05-07 17:54 | 51.83642 | -3.62618 | 18952 ft | 372 kts | 280° |
| 2026-05-07 17:54 | 51.84186 | -3.66804 | 19164 ft | 389 kts | 280° |
| 2026-05-07 17:55 | 51.84748 | -3.71112 | 19495 ft | 400 kts | 280° |
| 2026-05-07 17:55 | 51.85330 | -3.75584 | 20126 ft | 403 kts | 280° |
| 2026-05-07 17:55 | 51.85899 | -3.79978 | 20740 ft | 406 kts | 280° |
| 2026-05-07 17:55 | 51.86479 | -3.84485 | 21336 ft | 410 kts | 279° |
| 2026-05-07 17:56 | 51.87058 | -3.89010 | 21713 ft | 413 kts | 279° |
| 2026-05-07 17:56 | 51.87642 | -3.93588 | 21886 ft | 414 kts | 279° |
| 2026-05-07 17:56 | 51.88222 | -3.98153 | 21994 ft | 415 kts | 279° |
| 2026-05-07 17:56 | 51.88607 | -4.01193 | 22000 ft | 415 kts | 279° |
| 2026-05-07 17:57 | 51.89173 | -4.05680 | 22005 ft | 426 kts | 279° |
| 2026-05-07 17:57 | 51.89775 | -4.10481 | 22003 ft | 440 kts | 279° |
| 2026-05-07 17:57 | 51.90582 | -4.16920 | 22005 ft | 440 kts | 279° |
| 2026-05-07 17:57 | 51.90993 | -4.20203 | 22004 ft | 440 kts | 279° |
| 2026-05-07 17:58 | 51.91599 | -4.25069 | 22002 ft | 440 kts | 279° |
| 2026-05-07 17:58 | 51.92203 | -4.29935 | 21994 ft | 440 kts | 279° |
| 2026-05-07 17:58 | 51.92797 | -4.34740 | 22002 ft | 440 kts | 279° |
| 2026-05-07 17:58 | 51.93396 | -4.39599 | 22004 ft | 440 kts | 279° |
| 2026-05-07 17:59 | 51.93995 | -4.44475 | 22000 ft | 441 kts | 279° |
| 2026-05-07 17:59 | 51.94590 | -4.49342 | 22000 ft | 441 kts | 279° |
| 2026-05-07 17:59 | 51.95185 | -4.54232 | 21996 ft | 441 kts | 279° |
| 2026-05-07 17:59 | 51.95775 | -4.59098 | 22007 ft | 440 kts | 279° |
| 2026-05-07 18:00 | 51.96360 | -4.63934 | 21996 ft | 439 kts | 279° |
| 2026-05-07 18:00 | 51.96946 | -4.68802 | 21999 ft | 440 kts | 279° |
| 2026-05-07 18:00 | 51.97530 | -4.73672 | 22002 ft | 439 kts | 279° |
| 2026-05-07 18:00 | 51.98111 | -4.78535 | 22002 ft | 439 kts | 279° |
| 2026-05-07 18:01 | 51.98692 | -4.83414 | 22003 ft | 439 kts | 279° |
| 2026-05-07 18:01 | 51.99268 | -4.88272 | 21996 ft | 440 kts | 279° |
| 2026-05-07 18:01 | 51.99842 | -4.93121 | 21996 ft | 439 kts | 278° |
| 2026-05-07 18:01 | 52.00418 | -4.98011 | 21996 ft | 439 kts | 278° |
| 2026-05-07 18:02 | 52.01549 | -5.07657 | 21996 ft | 439 kts | 278° |
| 2026-05-07 18:02 | 52.02119 | -5.12553 | 21997 ft | 439 kts | 278° |
| 2026-05-07 18:02 | 52.02557 | -5.17417 | 21996 ft | 438 kts | 272° |
| 2026-05-07 18:03 | 52.02644 | -5.22381 | 21996 ft | 436 kts | 266° |
| 2026-05-07 18:03 | 52.02394 | -5.27286 | 21996 ft | 435 kts | 261° |
| 2026-05-07 18:03 | 52.02033 | -5.32158 | 21996 ft | 435 kts | 262° |
| 2026-05-07 18:03 | 52.01695 | -5.37002 | 21996 ft | 435 kts | 262° |
| 2026-05-07 18:04 | 52.01356 | -5.41904 | 21995 ft | 435 kts | 262° |
| 2026-05-07 18:04 | 52.01015 | -5.46784 | 21995 ft | 435 kts | 262° |
| 2026-05-07 18:04 | 52.00673 | -5.51627 | 21993 ft | 435 kts | 262° |
| 2026-05-07 18:04 | 52.00322 | -5.56544 | 21993 ft | 435 kts | 262° |
| 2026-05-07 18:05 | 51.99971 | -5.61419 | 21993 ft | 435 kts | 262° |
| 2026-05-07 18:05 | 51.99618 | -5.66286 | 21994 ft | 435 kts | 261° |
| 2026-05-07 18:05 | 51.99262 | -5.71165 | 21993 ft | 435 kts | 261° |
| 2026-05-07 18:05 | 51.98905 | -5.76022 | 21993 ft | 435 kts | 261° |
| 2026-05-07 18:06 | 51.98545 | -5.80904 | 21994 ft | 435 kts | 261° |
| 2026-05-07 18:06 | 51.98183 | -5.85779 | 21994 ft | 435 kts | 261° |
| 2026-05-07 18:06 | 51.97820 | -5.90637 | 21993 ft | 433 kts | 261° |
| 2026-05-07 18:06 | 51.97456 | -5.95486 | 21992 ft | 433 kts | 261° |
| 2026-05-07 18:07 | 51.97089 | -6.00347 | 21995 ft | 434 kts | 261° |
| 2026-05-07 18:07 | 51.96719 | -6.05220 | 21997 ft | 434 kts | 261° |
| 2026-05-07 18:07 | 51.96353 | -6.10016 | 21990 ft | 434 kts | 261° |
| 2026-05-07 18:07 | 51.95984 | -6.14818 | 21991 ft | 434 kts | 261° |
| 2026-05-07 18:08 | 51.95608 | -6.19693 | 21989 ft | 434 kts | 261° |
| 2026-05-07 18:08 | 51.95232 | -6.24540 | 21991 ft | 434 kts | 261° |
| 2026-05-07 18:08 | 51.94938 | -6.29467 | 21988 ft | 434 kts | 264° |
| 2026-05-07 18:08 | 51.94759 | -6.34365 | 21987 ft | 435 kts | 265° |
| 2026-05-07 18:09 | 51.94600 | -6.39255 | 21986 ft | 434 kts | 265° |
| 2026-05-07 18:09 | 51.94429 | -6.44140 | 21983 ft | 434 kts | 265° |
| 2026-05-07 18:09 | 51.94240 | -6.49034 | 21992 ft | 434 kts | 264° |
| 2026-05-07 18:09 | 51.94043 | -6.53857 | 21981 ft | 434 kts | 264° |
| 2026-05-07 18:10 | 51.93835 | -6.58742 | 21987 ft | 434 kts | 264° |
| 2026-05-07 18:10 | 51.93624 | -6.63616 | 21979 ft | 434 kts | 264° |
| 2026-05-07 18:10 | 51.93410 | -6.68511 | 21981 ft | 434 kts | 264° |
| 2026-05-07 18:10 | 51.93194 | -6.73389 | 21982 ft | 434 kts | 264° |
| 2026-05-07 18:11 | 51.92977 | -6.78270 | 21977 ft | 434 kts | 264° |
| 2026-05-07 18:11 | 51.92831 | -6.81501 | 21987 ft | 434 kts | 264° |
| 2026-05-07 18:11 | 51.92537 | -6.87997 | 21971 ft | 433 kts | 264° |
| 2026-05-07 18:11 | 51.92316 | -6.92847 | 21669 ft | 429 kts | 264° |
| 2026-05-07 18:12 | 51.92099 | -6.97571 | 21076 ft | 412 kts | 264° |
| 2026-05-07 18:12 | 51.91890 | -7.02080 | 20316 ft | 400 kts | 264° |
| 2026-05-07 18:12 | 51.91679 | -7.06580 | 19546 ft | 391 kts | 264° |
| 2026-05-07 18:12 | 51.91470 | -7.10968 | 18825 ft | 391 kts | 264° |
| 2026-05-07 18:13 | 51.91260 | -7.15340 | 18085 ft | 388 kts | 264° |
| 2026-05-07 18:13 | 51.91053 | -7.19650 | 17274 ft | 379 kts | 264° |
| 2026-05-07 18:13 | 51.90849 | -7.23857 | 16477 ft | 370 kts | 264° |
| 2026-05-07 18:13 | 51.90649 | -7.27958 | 15707 ft | 362 kts | 264° |
| 2026-05-07 18:14 | 51.90452 | -7.31977 | 15010 ft | 353 kts | 264° |
| 2026-05-07 18:14 | 51.90259 | -7.35880 | 14398 ft | 343 kts | 263° |
| 2026-05-07 18:14 | 51.90070 | -7.39688 | 13903 ft | 334 kts | 263° |
| 2026-05-07 18:14 | 51.89883 | -7.43402 | 13372 ft | 328 kts | 263° |
| 2026-05-07 18:15 | 51.89702 | -7.46974 | 12849 ft | 322 kts | 263° |
| 2026-05-07 18:15 | 51.89518 | -7.50583 | 12289 ft | 315 kts | 263° |
| 2026-05-07 18:15 | 51.89338 | -7.54094 | 11650 ft | 310 kts | 263° |
| 2026-05-07 18:15 | 51.89161 | -7.57541 | 11022 ft | 305 kts | 263° |
| 2026-05-07 18:16 | 51.88985 | -7.60941 | 10453 ft | 299 kts | 264° |
| 2026-05-07 18:16 | 51.88816 | -7.64217 | 10188 ft | 283 kts | 264° |
| 2026-05-07 18:16 | 51.88653 | -7.67328 | 10095 ft | 280 kts | 264° |
| 2026-05-07 18:16 | 51.88488 | -7.70456 | 9857 ft | 280 kts | 264° |
| 2026-05-07 18:17 | 51.88324 | -7.73562 | 9589 ft | 274 kts | 264° |
| 2026-05-07 18:17 | 51.88162 | -7.76616 | 9323 ft | 274 kts | 263° |
| 2026-05-07 18:17 | 51.88009 | -7.79694 | 9051 ft | 274 kts | 267° |
| 2026-05-07 18:17 | 51.88224 | -7.82729 | 8782 ft | 271 kts | 283° |
| 2026-05-07 18:18 | 51.88959 | -7.85546 | 8520 ft | 273 kts | 296° |
| 2026-05-07 18:18 | 51.89867 | -7.88236 | 8253 ft | 271 kts | 296° |
| 2026-05-07 18:18 | 51.90761 | -7.90919 | 7985 ft | 270 kts | 296° |
| 2026-05-07 18:18 | 51.91647 | -7.93598 | 7742 ft | 270 kts | 296° |
| 2026-05-07 18:19 | 51.92526 | -7.96266 | 7493 ft | 268 kts | 296° |
| 2026-05-07 18:19 | 51.93403 | -7.98936 | 7273 ft | 268 kts | 296° |
| 2026-05-07 18:19 | 51.94273 | -8.01583 | 7152 ft | 268 kts | 297° |
| 2026-05-07 18:19 | 51.95148 | -8.04250 | 7007 ft | 269 kts | 297° |
| 2026-05-07 18:20 | 51.96026 | -8.06926 | 6780 ft | 267 kts | 297° |
| 2026-05-07 18:20 | 51.96893 | -8.09573 | 6694 ft | 263 kts | 297° |
| 2026-05-07 18:20 | 51.97723 | -8.12103 | 6609 ft | 251 kts | 297° |
| 2026-05-07 18:20 | 51.98521 | -8.14542 | 6535 ft | 239 kts | 297° |
| 2026-05-07 18:21 | 51.99286 | -8.16881 | 6457 ft | 236 kts | 297° |
| 2026-05-07 18:21 | 52.00059 | -8.19250 | 6392 ft | 234 kts | 296° |
| 2026-05-07 18:21 | 52.00812 | -8.21551 | 6298 ft | 230 kts | 296° |
| 2026-05-07 18:21 | 52.01564 | -8.23856 | 6229 ft | 232 kts | 297° |
| 2026-05-07 18:22 | 52.02329 | -8.26204 | 6151 ft | 235 kts | 297° |
| 2026-05-07 18:22 | 52.02834 | -8.27757 | 6090 ft | 234 kts | 296° |
| 2026-05-07 18:22 | 52.03832 | -8.30824 | 6007 ft | 233 kts | 297° |
| 2026-05-07 18:22 | 52.04589 | -8.33158 | 5994 ft | 233 kts | 296° |
| 2026-05-07 18:23 | 52.05338 | -8.35465 | 5993 ft | 228 kts | 296° |
| 2026-05-07 18:23 | 52.06082 | -8.37754 | 5839 ft | 230 kts | 296° |
| 2026-05-07 18:23 | 52.06827 | -8.40052 | 5452 ft | 230 kts | 295° |
| 2026-05-07 18:23 | 52.07453 | -8.42418 | 5070 ft | 225 kts | 277° |
| 2026-05-07 18:24 | 52.07378 | -8.44873 | 4836 ft | 216 kts | 252° |
| 2026-05-07 18:24 | 52.06861 | -8.47180 | 4432 ft | 218 kts | 249° |
| 2026-05-07 18:24 | 52.06333 | -8.49490 | 4054 ft | 218 kts | 249° |
| 2026-05-07 18:24 | 52.05815 | -8.51775 | 3789 ft | 212 kts | 249° |
| 2026-05-07 18:25 | 52.05310 | -8.54009 | 3537 ft | 208 kts | 249° |
| 2026-05-07 18:25 | 52.04815 | -8.56196 | 3276 ft | 204 kts | 249° |
| 2026-05-07 18:25 | 52.04182 | -8.58222 | 3041 ft | 199 kts | 227° |
| 2026-05-07 18:25 | 52.03041 | -8.59306 | 3018 ft | 186 kts | 195° |
| 2026-05-07 18:26 | 52.01730 | -8.59355 | 2999 ft | 193 kts | 174° |
| 2026-05-07 18:26 | 52.00455 | -8.58816 | 3000 ft | 194 kts | 165° |
| 2026-05-07 18:26 | 51.99187 | -8.58052 | 2997 ft | 194 kts | 162° |
| 2026-05-07 18:26 | 51.98045 | -8.57371 | 3004 ft | 207 kts | 163° |
| 2026-05-07 18:27 | 51.96707 | -8.56569 | 2974 ft | 194 kts | 163° |
| 2026-05-07 18:27 | 51.95487 | -8.55845 | 2741 ft | 178 kts | 163° |
| 2026-05-07 18:27 | 51.94381 | -8.55186 | 2504 ft | 161 kts | 164° |
| 2026-05-07 18:27 | 51.93704 | -8.54785 | 2366 ft | 152 kts | 164° |
| 2026-05-07 18:28 | 51.92452 | -8.54042 | 2103 ft | 133 kts | 164° |
| 2026-05-07 18:28 | 51.91578 | -8.53524 | 2193 ft | 136 kts | 163° |
| 2026-05-07 18:28 | 51.90653 | -8.52962 | 1850 ft | 139 kts | 164° |
| 2026-05-07 18:28 | 51.89769 | -8.52398 | 1626 ft | 137 kts | 164° |
| 2026-05-07 18:29 | 51.88897 | -8.51889 | 1347 ft | 133 kts | 166° |
| 2026-05-07 18:29 | 51.88015 | -8.51428 | 1106 ft | 133 kts | 165° |
| 2026-05-07 18:29 | 51.87165 | -8.50937 | 950 ft | 124 kts | 162° |
| 2026-05-07 18:29 | 51.86367 | -8.50441 | 825 ft | 124 kts | 161° |
| 2026-05-07 18:30 | 51.85544 | -8.49954 | 639 ft | 128 kts | 161° |
| 2026-05-07 18:30 | 51.84709 | -8.49461 | 509 ft | 122 kts | 163° |
| 2026-05-07 18:30 | 51.84089 | -8.49087 | 504 ft | 55 kts | 161° |
| 2026-05-07 18:30 | 51.83868 | -8.48964 | 504 ft | 29 kts | 159° |
| 2026-05-07 18:31 | 51.83682 | -8.48853 | 504 ft | 28 kts | 160° |
| 2026-05-07 18:31 | 51.83497 | -8.48751 | 504 ft | 28 kts | 159° |
| 2026-05-07 18:31 | 51.83343 | -8.48657 | 504 ft | 14 kts | 156° |
| 2026-05-07 18:31 | 51.83292 | -8.48571 | 504 ft | 8 kts | 109° |
| 2026-05-07 18:32 | 51.83251 | -8.48551 | 504 ft | 8 kts | 233° |
| 2026-05-07 18:32 | 51.83276 | -8.48612 | 504 ft | 9 kts | 342° |
| 2026-05-07 18:32 | 51.83349 | -8.48650 | 504 ft | 13 kts | 342° |
| 2026-05-07 18:32 | 51.83446 | -8.48701 | 504 ft | 17 kts | 342° |
| 2026-05-07 18:33 | 51.83562 | -8.48775 | 504 ft | 19 kts | 335° |
| 2026-05-07 18:33 | 51.83697 | -8.48856 | 504 ft | 22 kts | 340° |
| 2026-05-07 18:33 | 51.83850 | -8.48948 | 504 ft | 25 kts | 339° |
| 2026-05-07 18:33 | 51.84020 | -8.49051 | 504 ft | 27 kts | 340° |
| 2026-05-07 18:34 | 51.84200 | -8.49159 | 504 ft | 29 kts | 340° |
| 2026-05-07 18:34 | 51.84381 | -8.49262 | 504 ft | 26 kts | 340° |
| 2026-05-07 18:34 | 51.84562 | -8.49367 | 504 ft | 29 kts | 340° |
| 2026-05-07 18:34 | 51.84723 | -8.49460 | 504 ft | 12 kts | 345° |
| 2026-05-07 18:35 | 51.84759 | -8.49456 | 504 ft | 7 kts | 25° |
| 2026-05-07 18:35 | 51.84784 | -8.49377 | 504 ft | 10 kts | 70° |
| 2026-05-07 18:35 | 51.84807 | -8.49253 | 504 ft | 12 kts | 76° |
| 2026-05-07 18:35 | 51.84826 | -8.49134 | 504 ft | 11 kts | 72° |
| 2026-05-07 18:36 | 51.84836 | -8.49089 | 504 ft | 2 kts | 69° |
| 2026-05-07 18:36 | 51.84844 | -8.49053 | 504 ft | 2 kts | 69° |
| 2026-05-07 18:36 | 51.84846 | -8.49047 | 504 ft | 1 kts | 69° |
| 2026-05-07 18:36 | 51.84847 | -8.49046 | 504 ft | 0 kts | 67° |